Olalla, Washington
Current Conditions -  °F | °C
As of 8:15 PM on Saturday 25 Oct 2014 (Local Time) from KPWT Reporting Station
Overcast Overcast  
Wind Chill: 52°   Ceiling: 1200
Heat Index: 52°   Visibility: 10mi
Dew Point: 48°   Wind: 31mph
Humidity: 88%   Direction: 190°S
Pressure: 29.44"   Gusts: 41mph
Location:  47.43°N, 122.55°W
Report Text: KPWT 260315Z AUTO 19027G36KT 10SM BKN012 OVC075 11/09 A2944 RMK AO1
Loading
Personal Weather Stations






























Interactive Weather Map
Tropical Storm Tracking
New forecast layout! Learn more

10-Day Weather Forecast

Advertisements
Track Severe Weather on mobile